sensor_id;sensor_type;location;lat;lon;timestamp;P1;durP1;ratioP1;P2;durP2;ratioP2
26750;SDS011;14345;48.272;25.926;2023-12-04T00:01:29;18.67;;;13.13;;
26750;SDS011;14345;48.272;25.926;2023-12-04T00:03:55;17.60;;;13.50;;
26750;SDS011;14345;48.272;25.926;2023-12-04T00:06:21;16.88;;;12.45;;
26750;SDS011;14345;48.272;25.926;2023-12-04T00:08:47;17.20;;;12.48;;
26750;SDS011;14345;48.272;25.926;2023-12-04T00:11:13;15.32;;;11.98;;
26750;SDS011;14345;48.272;25.926;2023-12-04T00:13:39;15.52;;;12.23;;
26750;SDS011;14345;48.272;25.926;2023-12-04T00:16:06;14.35;;;11.60;;
26750;SDS011;14345;48.272;25.926;2023-12-04T00:18:32;17.48;;;12.52;;
26750;SDS011;14345;48.272;25.926;2023-12-04T00:20:58;16.45;;;12.45;;
26750;SDS011;14345;48.272;25.926;2023-12-04T00:23:24;19.90;;;14.23;;
26750;SDS011;14345;48.272;25.926;2023-12-04T00:25:50;18.02;;;13.05;;
26750;SDS011;14345;48.272;25.926;2023-12-04T00:28:16;17.17;;;12.50;;
26750;SDS011;14345;48.272;25.926;2023-12-04T00:30:42;17.00;;;12.65;;
26750;SDS011;14345;48.272;25.926;2023-12-04T00:33:08;19.02;;;13.80;;
26750;SDS011;14345;48.272;25.926;2023-12-04T00:35:34;18.45;;;12.73;;
26750;SDS011;14345;48.272;25.926;2023-12-04T00:38:00;18.13;;;13.48;;
26750;SDS011;14345;48.272;25.926;2023-12-04T00:40:26;20.80;;;14.50;;
26750;SDS011;14345;48.272;25.926;2023-12-04T00:42:52;18.63;;;12.90;;
26750;SDS011;14345;48.272;25.926;2023-12-04T00:45:19;22.02;;;14.70;;
26750;SDS011;14345;48.272;25.926;2023-12-04T00:47:45;23.10;;;14.55;;
26750;SDS011;14345;48.272;25.926;2023-12-04T00:50:11;17.90;;;13.50;;
26750;SDS011;14345;48.272;25.926;2023-12-04T00:52:37;20.25;;;14.30;;
26750;SDS011;14345;48.272;25.926;2023-12-04T00:55:03;19.33;;;13.85;;
26750;SDS011;14345;48.272;25.926;2023-12-04T00:57:29;18.67;;;13.75;;
26750;SDS011;14345;48.272;25.926;2023-12-04T00:59:56;18.27;;;13.00;;
26750;SDS011;14345;48.272;25.926;2023-12-04T01:02:22;17.17;;;12.88;;
26750;SDS011;14345;48.272;25.926;2023-12-04T01:04:48;19.10;;;14.35;;
26750;SDS011;14345;48.272;25.926;2023-12-04T01:07:15;19.33;;;14.45;;
26750;SDS011;14345;48.272;25.926;2023-12-04T01:09:41;21.08;;;14.48;;
26750;SDS011;14345;48.272;25.926;2023-12-04T01:12:07;18.77;;;13.73;;
26750;SDS011;14345;48.272;25.926;2023-12-04T01:14:33;20.92;;;14.40;;
26750;SDS011;14345;48.272;25.926;2023-12-04T01:16:59;19.08;;;13.68;;
26750;SDS011;14345;48.272;25.926;2023-12-04T01:19:25;20.80;;;13.60;;
26750;SDS011;14345;48.272;25.926;2023-12-04T01:21:51;18.60;;;13.52;;
26750;SDS011;14345;48.272;25.926;2023-12-04T01:24:18;19.63;;;13.10;;
26750;SDS011;14345;48.272;25.926;2023-12-04T01:26:44;17.00;;;12.63;;
26750;SDS011;14345;48.272;25.926;2023-12-04T01:29:10;16.88;;;12.35;;
26750;SDS011;14345;48.272;25.926;2023-12-04T01:31:36;18.33;;;13.13;;
26750;SDS011;14345;48.272;25.926;2023-12-04T01:34:02;15.80;;;11.88;;
26750;SDS011;14345;48.272;25.926;2023-12-04T01:36:28;17.58;;;12.65;;
26750;SDS011;14345;48.272;25.926;2023-12-04T01:38:55;17.90;;;13.25;;
26750;SDS011;14345;48.272;25.926;2023-12-04T01:41:21;15.75;;;12.57;;
26750;SDS011;14345;48.272;25.926;2023-12-04T01:43:47;16.95;;;13.20;;
26750;SDS011;14345;48.272;25.926;2023-12-04T01:46:13;16.50;;;12.38;;
26750;SDS011;14345;48.272;25.926;2023-12-04T01:48:43;18.15;;;12.13;;
26750;SDS011;14345;48.272;25.926;2023-12-04T01:51:10;16.42;;;12.15;;
26750;SDS011;14345;48.272;25.926;2023-12-04T01:53:38;16.20;;;12.00;;
26750;SDS011;14345;48.272;25.926;2023-12-04T01:56:05;15.45;;;11.25;;
26750;SDS011;14345;48.272;25.926;2023-12-04T01:58:31;16.80;;;12.10;;
26750;SDS011;14345;48.272;25.926;2023-12-04T02:00:58;15.05;;;11.20;;
26750;SDS011;14345;48.272;25.926;2023-12-04T02:03:24;17.10;;;12.10;;
26750;SDS011;14345;48.272;25.926;2023-12-04T02:05:51;16.67;;;12.02;;
26750;SDS011;14345;48.272;25.926;2023-12-04T02:08:20;15.75;;;12.20;;
26750;SDS011;14345;48.272;25.926;2023-12-04T02:10:46;15.05;;;11.25;;
26750;SDS011;14345;48.272;25.926;2023-12-04T02:13:12;15.60;;;11.75;;
26750;SDS011;14345;48.272;25.926;2023-12-04T02:15:38;15.25;;;11.60;;
26750;SDS011;14345;48.272;25.926;2023-12-04T02:18:04;14.40;;;11.02;;
26750;SDS011;14345;48.272;25.926;2023-12-04T02:20:31;12.88;;;10.10;;
26750;SDS011;14345;48.272;25.926;2023-12-04T02:22:58;16.80;;;11.80;;
26750;SDS011;14345;48.272;25.926;2023-12-04T02:25:24;16.10;;;12.13;;
26750;SDS011;14345;48.272;25.926;2023-12-04T02:27:50;15.35;;;11.77;;
26750;SDS011;14345;48.272;25.926;2023-12-04T02:30:19;14.30;;;11.63;;
26750;SDS011;14345;48.272;25.926;2023-12-04T02:32:45;15.57;;;11.93;;
26750;SDS011;14345;48.272;25.926;2023-12-04T02:35:12;16.30;;;11.40;;
26750;SDS011;14345;48.272;25.926;2023-12-04T02:37:40;13.73;;;10.43;;
26750;SDS011;14345;48.272;25.926;2023-12-04T02:40:06;13.18;;;10.38;;
26750;SDS011;14345;48.272;25.926;2023-12-04T02:42:33;13.88;;;10.88;;
26750;SDS011;14345;48.272;25.926;2023-12-04T02:44:59;13.85;;;10.88;;
26750;SDS011;14345;48.272;25.926;2023-12-04T02:47:25;14.73;;;11.48;;
26750;SDS011;14345;48.272;25.926;2023-12-04T02:49:51;15.05;;;11.43;;
26750;SDS011;14345;48.272;25.926;2023-12-04T02:52:18;14.02;;;10.63;;
26750;SDS011;14345;48.272;25.926;2023-12-04T02:54:44;14.30;;;11.48;;
26750;SDS011;14345;48.272;25.926;2023-12-04T02:57:10;15.07;;;10.80;;
26750;SDS011;14345;48.272;25.926;2023-12-04T02:59:36;14.88;;;11.20;;
26750;SDS011;14345;48.272;25.926;2023-12-04T03:02:02;15.93;;;11.27;;
26750;SDS011;14345;48.272;25.926;2023-12-04T03:04:29;15.52;;;11.77;;
26750;SDS011;14345;48.272;25.926;2023-12-04T03:06:55;14.68;;;11.82;;
26750;SDS011;14345;48.272;25.926;2023-12-04T03:09:21;15.38;;;11.60;;
26750;SDS011;14345;48.272;25.926;2023-12-04T03:11:47;16.13;;;12.23;;
26750;SDS011;14345;48.272;25.926;2023-12-04T03:14:13;15.88;;;12.70;;
26750;SDS011;14345;48.272;25.926;2023-12-04T03:16:39;17.08;;;12.90;;
26750;SDS011;14345;48.272;25.926;2023-12-04T03:19:05;14.85;;;12.25;;
26750;SDS011;14345;48.272;25.926;2023-12-04T03:21:31;15.23;;;11.80;;
26750;SDS011;14345;48.272;25.926;2023-12-04T03:23:59;10.60;;;8.57;;
26750;SDS011;14345;48.272;25.926;2023-12-04T03:26:25;16.88;;;13.52;;
26750;SDS011;14345;48.272;25.926;2023-12-04T03:28:51;18.92;;;14.15;;
26750;SDS011;14345;48.272;25.926;2023-12-04T03:31:17;18.05;;;13.05;;
26750;SDS011;14345;48.272;25.926;2023-12-04T03:33:43;16.58;;;12.45;;
26750;SDS011;14345;48.272;25.926;2023-12-04T03:36:09;15.65;;;12.15;;
26750;SDS011;14345;48.272;25.926;2023-12-04T03:38:35;16.85;;;11.80;;
26750;SDS011;14345;48.272;25.926;2023-12-04T03:41:01;15.13;;;12.13;;
26750;SDS011;14345;48.272;25.926;2023-12-04T03:43:28;14.38;;;10.73;;
26750;SDS011;14345;48.272;25.926;2023-12-04T03:45:54;16.10;;;12.50;;
26750;SDS011;14345;48.272;25.926;2023-12-04T03:48:20;19.67;;;13.30;;
26750;SDS011;14345;48.272;25.926;2023-12-04T03:50:46;15.02;;;11.45;;
26750;SDS011;14345;48.272;25.926;2023-12-04T03:53:12;15.07;;;11.23;;
26750;SDS011;14345;48.272;25.926;2023-12-04T03:55:38;14.45;;;12.35;;
26750;SDS011;14345;48.272;25.926;2023-12-04T03:58:04;14.25;;;11.88;;
26750;SDS011;14345;48.272;25.926;2023-12-04T04:00:30;15.98;;;12.10;;
26750;SDS011;14345;48.272;25.926;2023-12-04T04:02:56;15.07;;;11.88;;
26750;SDS011;14345;48.272;25.926;2023-12-04T04:05:22;15.57;;;11.68;;
26750;SDS011;14345;48.272;25.926;2023-12-04T04:07:48;17.35;;;12.32;;
26750;SDS011;14345;48.272;25.926;2023-12-04T04:10:15;15.95;;;12.05;;
26750;SDS011;14345;48.272;25.926;2023-12-04T04:12:41;17.25;;;12.55;;
26750;SDS011;14345;48.272;25.926;2023-12-04T04:15:07;18.65;;;14.07;;
26750;SDS011;14345;48.272;25.926;2023-12-04T04:17:33;18.73;;;13.63;;
26750;SDS011;14345;48.272;25.926;2023-12-04T04:20:00;18.58;;;13.18;;
26750;SDS011;14345;48.272;25.926;2023-12-04T04:22:26;16.35;;;12.88;;
26750;SDS011;14345;48.272;25.926;2023-12-04T04:24:52;17.63;;;13.15;;
26750;SDS011;14345;48.272;25.926;2023-12-04T04:27:18;16.67;;;12.27;;
26750;SDS011;14345;48.272;25.926;2023-12-04T04:29:44;16.23;;;12.25;;
26750;SDS011;14345;48.272;25.926;2023-12-04T04:32:10;14.75;;;11.43;;
26750;SDS011;14345;48.272;25.926;2023-12-04T04:34:36;16.77;;;12.30;;
26750;SDS011;14345;48.272;25.926;2023-12-04T04:37:02;16.48;;;12.82;;
26750;SDS011;14345;48.272;25.926;2023-12-04T04:39:29;15.10;;;11.73;;
26750;SDS011;14345;48.272;25.926;2023-12-04T04:41:55;18.38;;;14.13;;
26750;SDS011;14345;48.272;25.926;2023-12-04T04:44:21;20.98;;;15.70;;
26750;SDS011;14345;48.272;25.926;2023-12-04T04:46:47;24.52;;;17.63;;
26750;SDS011;14345;48.272;25.926;2023-12-04T04:49:13;23.17;;;17.23;;
26750;SDS011;14345;48.272;25.926;2023-12-04T04:51:39;26.63;;;18.55;;
26750;SDS011;14345;48.272;25.926;2023-12-04T04:54:05;25.13;;;18.75;;
26750;SDS011;14345;48.272;25.926;2023-12-04T04:56:31;26.05;;;17.92;;
26750;SDS011;14345;48.272;25.926;2023-12-04T04:58:57;27.80;;;19.40;;
26750;SDS011;14345;48.272;25.926;2023-12-04T05:01:23;24.02;;;18.23;;
26750;SDS011;14345;48.272;25.926;2023-12-04T05:03:49;25.55;;;18.88;;
26750;SDS011;14345;48.272;25.926;2023-12-04T05:06:15;28.33;;;20.40;;
26750;SDS011;14345;48.272;25.926;2023-12-04T05:08:41;26.65;;;20.33;;
26750;SDS011;14345;48.272;25.926;2023-12-04T05:11:08;27.63;;;20.67;;
26750;SDS011;14345;48.272;25.926;2023-12-04T05:13:34;23.23;;;18.17;;
26750;SDS011;14345;48.272;25.926;2023-12-04T05:16:00;25.50;;;18.73;;
26750;SDS011;14345;48.272;25.926;2023-12-04T05:18:26;28.33;;;20.25;;
26750;SDS011;14345;48.272;25.926;2023-12-04T05:20:52;32.58;;;21.98;;
26750;SDS011;14345;48.272;25.926;2023-12-04T05:23:18;28.98;;;19.65;;
26750;SDS011;14345;48.272;25.926;2023-12-04T05:25:46;27.33;;;19.23;;
26750;SDS011;14345;48.272;25.926;2023-12-04T05:28:12;29.10;;;20.73;;
26750;SDS011;14345;48.272;25.926;2023-12-04T05:30:38;33.30;;;21.40;;
26750;SDS011;14345;48.272;25.926;2023-12-04T05:33:04;89.68;;;64.38;;
26750;SDS011;14345;48.272;25.926;2023-12-04T05:35:30;72.45;;;50.05;;
26750;SDS011;14345;48.272;25.926;2023-12-04T05:37:59;40.83;;;30.05;;
26750;SDS011;14345;48.272;25.926;2023-12-04T05:40:25;32.25;;;22.55;;
26750;SDS011;14345;48.272;25.926;2023-12-04T05:42:51;29.92;;;21.20;;
26750;SDS011;14345;48.272;25.926;2023-12-04T05:45:17;30.80;;;21.08;;
26750;SDS011;14345;48.272;25.926;2023-12-04T05:47:43;29.75;;;20.10;;
26750;SDS011;14345;48.272;25.926;2023-12-04T05:50:09;25.90;;;18.27;;
26750;SDS011;14345;48.272;25.926;2023-12-04T05:52:35;23.88;;;17.38;;
26750;SDS011;14345;48.272;25.926;2023-12-04T05:55:01;22.40;;;16.55;;
26750;SDS011;14345;48.272;25.926;2023-12-04T05:57:27;24.27;;;17.08;;
26750;SDS011;14345;48.272;25.926;2023-12-04T05:59:53;26.05;;;17.85;;
26750;SDS011;14345;48.272;25.926;2023-12-04T06:02:20;25.13;;;17.83;;
26750;SDS011;14345;48.272;25.926;2023-12-04T06:04:46;24.42;;;17.90;;
26750;SDS011;14345;48.272;25.926;2023-12-04T06:07:12;47.17;;;36.05;;
26750;SDS011;14345;48.272;25.926;2023-12-04T06:09:38;39.53;;;30.73;;
26750;SDS011;14345;48.272;25.926;2023-12-04T06:12:04;30.15;;;25.42;;
26750;SDS011;14345;48.272;25.926;2023-12-04T06:14:33;27.65;;;22.13;;
26750;SDS011;14345;48.272;25.926;2023-12-04T06:17:00;27.02;;;21.02;;
26750;SDS011;14345;48.272;25.926;2023-12-04T06:19:27;26.42;;;19.30;;
26750;SDS011;14345;48.272;25.926;2023-12-04T06:21:54;29.42;;;21.58;;
26750;SDS011;14345;48.272;25.926;2023-12-04T06:24:20;41.50;;;29.85;;
26750;SDS011;14345;48.272;25.926;2023-12-04T06:26:48;63.45;;;43.17;;
26750;SDS011;14345;48.272;25.926;2023-12-04T06:29:15;43.67;;;31.20;;
26750;SDS011;14345;48.272;25.926;2023-12-04T06:31:42;34.95;;;26.75;;
26750;SDS011;14345;48.272;25.926;2023-12-04T06:34:08;37.17;;;26.13;;
26750;SDS011;14345;48.272;25.926;2023-12-04T06:36:37;31.48;;;24.20;;
26750;SDS011;14345;48.272;25.926;2023-12-04T06:39:06;62.97;;;45.03;;
26750;SDS011;14345;48.272;25.926;2023-12-04T06:41:34;56.30;;;42.00;;
26750;SDS011;14345;48.272;25.926;2023-12-04T06:44:01;36.10;;;28.42;;
26750;SDS011;14345;48.272;25.926;2023-12-04T06:46:27;37.88;;;27.55;;
26750;SDS011;14345;48.272;25.926;2023-12-04T06:48:54;35.10;;;25.25;;
26750;SDS011;14345;48.272;25.926;2023-12-04T06:51:22;33.95;;;24.63;;
26750;SDS011;14345;48.272;25.926;2023-12-04T06:53:48;30.85;;;23.00;;
26750;SDS011;14345;48.272;25.926;2023-12-04T06:56:15;78.07;;;53.50;;
26750;SDS011;14345;48.272;25.926;2023-12-04T06:58:41;57.10;;;39.45;;
26750;SDS011;14345;48.272;25.926;2023-12-04T07:01:07;33.38;;;23.92;;
26750;SDS011;14345;48.272;25.926;2023-12-04T07:03:33;24.27;;;17.75;;
26750;SDS011;14345;48.272;25.926;2023-12-04T07:05:59;25.45;;;18.45;;
26750;SDS011;14345;48.272;25.926;2023-12-04T07:08:25;26.40;;;17.77;;
26750;SDS011;14345;48.272;25.926;2023-12-04T07:10:51;23.88;;;15.50;;
26750;SDS011;14345;48.272;25.926;2023-12-04T07:13:18;20.30;;;16.15;;
26750;SDS011;14345;48.272;25.926;2023-12-04T07:15:44;24.30;;;17.83;;
26750;SDS011;14345;48.272;25.926;2023-12-04T07:18:10;24.85;;;18.27;;
26750;SDS011;14345;48.272;25.926;2023-12-04T07:20:36;26.38;;;18.58;;
26750;SDS011;14345;48.272;25.926;2023-12-04T07:23:02;34.65;;;24.67;;
26750;SDS011;14345;48.272;25.926;2023-12-04T07:25:29;36.50;;;26.00;;
26750;SDS011;14345;48.272;25.926;2023-12-04T07:27:55;31.48;;;23.17;;
26750;SDS011;14345;48.272;25.926;2023-12-04T07:30:23;30.48;;;21.05;;
26750;SDS011;14345;48.272;25.926;2023-12-04T07:32:50;27.88;;;19.77;;
26750;SDS011;14345;48.272;25.926;2023-12-04T07:35:16;30.00;;;19.05;;
26750;SDS011;14345;48.272;25.926;2023-12-04T07:37:46;28.77;;;18.98;;
26750;SDS011;14345;48.272;25.926;2023-12-04T07:40:12;23.05;;;17.85;;
26750;SDS011;14345;48.272;25.926;2023-12-04T07:42:38;24.25;;;17.40;;
26750;SDS011;14345;48.272;25.926;2023-12-04T07:45:04;26.52;;;18.95;;
26750;SDS011;14345;48.272;25.926;2023-12-04T07:47:30;23.80;;;17.33;;
26750;SDS011;14345;48.272;25.926;2023-12-04T07:49:56;23.58;;;16.70;;
26750;SDS011;14345;48.272;25.926;2023-12-04T07:52:23;28.35;;;18.02;;
26750;SDS011;14345;48.272;25.926;2023-12-04T07:54:49;23.83;;;16.67;;
26750;SDS011;14345;48.272;25.926;2023-12-04T07:57:15;74.22;;;52.05;;
26750;SDS011;14345;48.272;25.926;2023-12-04T07:59:41;47.53;;;33.58;;
26750;SDS011;14345;48.272;25.926;2023-12-04T08:02:07;36.13;;;24.30;;
26750;SDS011;14345;48.272;25.926;2023-12-04T08:04:34;30.58;;;21.02;;
26750;SDS011;14345;48.272;25.926;2023-12-04T08:07:00;27.10;;;18.83;;
26750;SDS011;14345;48.272;25.926;2023-12-04T08:09:26;26.45;;;18.73;;
26750;SDS011;14345;48.272;25.926;2023-12-04T08:11:52;32.35;;;19.88;;
26750;SDS011;14345;48.272;25.926;2023-12-04T08:14:18;24.23;;;17.52;;
26750;SDS011;14345;48.272;25.926;2023-12-04T08:16:44;26.10;;;16.77;;
26750;SDS011;14345;48.272;25.926;2023-12-04T08:19:10;23.75;;;15.65;;
26750;SDS011;14345;48.272;25.926;2023-12-04T08:21:37;23.33;;;15.95;;
26750;SDS011;14345;48.272;25.926;2023-12-04T08:24:03;22.27;;;15.73;;
26750;SDS011;14345;48.272;25.926;2023-12-04T08:26:29;21.67;;;14.73;;
26750;SDS011;14345;48.272;25.926;2023-12-04T08:28:55;22.25;;;15.90;;
26750;SDS011;14345;48.272;25.926;2023-12-04T08:31:21;25.67;;;15.18;;
26750;SDS011;14345;48.272;25.926;2023-12-04T08:33:47;23.35;;;16.67;;
26750;SDS011;14345;48.272;25.926;2023-12-04T08:36:13;25.65;;;16.30;;
26750;SDS011;14345;48.272;25.926;2023-12-04T08:38:40;24.35;;;15.63;;
26750;SDS011;14345;48.272;25.926;2023-12-04T08:41:07;25.60;;;16.38;;
26750;SDS011;14345;48.272;25.926;2023-12-04T08:43:33;56.92;;;37.60;;
26750;SDS011;14345;48.272;25.926;2023-12-04T08:45:59;54.83;;;36.40;;
26750;SDS011;14345;48.272;25.926;2023-12-04T08:48:25;36.60;;;23.33;;
26750;SDS011;14345;48.272;25.926;2023-12-04T08:50:51;34.05;;;22.65;;
26750;SDS011;14345;48.272;25.926;2023-12-04T08:53:17;33.65;;;22.13;;
26750;SDS011;14345;48.272;25.926;2023-12-04T08:55:43;32.55;;;21.38;;
26750;SDS011;14345;48.272;25.926;2023-12-04T08:58:10;32.60;;;21.23;;
26750;SDS011;14345;48.272;25.926;2023-12-04T09:00:36;28.70;;;20.55;;
26750;SDS011;14345;48.272;25.926;2023-12-04T09:03:03;41.55;;;23.98;;
26750;SDS011;14345;48.272;25.926;2023-12-04T09:05:29;40.20;;;25.58;;
26750;SDS011;14345;48.272;25.926;2023-12-04T09:07:55;35.92;;;23.33;;
26750;SDS011;14345;48.272;25.926;2023-12-04T09:10:21;31.40;;;22.30;;
26750;SDS011;14345;48.272;25.926;2023-12-04T09:12:47;36.08;;;25.05;;
26750;SDS011;14345;48.272;25.926;2023-12-04T09:15:13;30.00;;;20.75;;
26750;SDS011;14345;48.272;25.926;2023-12-04T09:17:39;28.48;;;20.27;;
26750;SDS011;14345;48.272;25.926;2023-12-04T09:20:05;35.83;;;18.65;;
26750;SDS011;14345;48.272;25.926;2023-12-04T09:22:32;28.15;;;18.80;;
26750;SDS011;14345;48.272;25.926;2023-12-04T09:25:00;28.50;;;18.48;;
26750;SDS011;14345;48.272;25.926;2023-12-04T09:27:26;25.92;;;17.45;;
26750;SDS011;14345;48.272;25.926;2023-12-04T09:29:52;25.33;;;17.85;;
26750;SDS011;14345;48.272;25.926;2023-12-04T09:32:18;24.98;;;16.50;;
26750;SDS011;14345;48.272;25.926;2023-12-04T09:34:44;21.83;;;15.63;;
26750;SDS011;14345;48.272;25.926;2023-12-04T09:37:10;20.90;;;14.32;;
26750;SDS011;14345;48.272;25.926;2023-12-04T09:39:36;21.55;;;14.80;;
26750;SDS011;14345;48.272;25.926;2023-12-04T09:42:02;23.80;;;16.05;;
26750;SDS011;14345;48.272;25.926;2023-12-04T09:44:29;21.77;;;14.45;;
26750;SDS011;14345;48.272;25.926;2023-12-04T09:46:56;21.40;;;14.75;;
26750;SDS011;14345;48.272;25.926;2023-12-04T09:49:22;19.10;;;13.95;;
26750;SDS011;14345;48.272;25.926;2023-12-04T09:51:48;18.33;;;12.48;;
26750;SDS011;14345;48.272;25.926;2023-12-04T09:54:15;17.27;;;12.30;;
26750;SDS011;14345;48.272;25.926;2023-12-04T09:56:44;17.75;;;11.32;;
26750;SDS011;14345;48.272;25.926;2023-12-04T09:59:10;20.27;;;12.77;;
26750;SDS011;14345;48.272;25.926;2023-12-04T10:01:39;21.73;;;14.20;;
26750;SDS011;14345;48.272;25.926;2023-12-04T10:04:06;17.13;;;13.05;;
26750;SDS011;14345;48.272;25.926;2023-12-04T10:06:32;21.00;;;14.10;;
26750;SDS011;14345;48.272;25.926;2023-12-04T10:08:58;25.83;;;17.77;;
26750;SDS011;14345;48.272;25.926;2023-12-04T10:11:25;28.45;;;18.77;;
26750;SDS011;14345;48.272;25.926;2023-12-04T10:13:52;24.15;;;17.05;;
26750;SDS011;14345;48.272;25.926;2023-12-04T10:16:34;22.13;;;14.80;;
26750;SDS011;14345;48.272;25.926;2023-12-04T10:19:20;22.27;;;15.13;;
26750;SDS011;14345;48.272;25.926;2023-12-04T10:21:48;23.20;;;16.02;;
26750;SDS011;14345;48.272;25.926;2023-12-04T10:26:53;21.55;;;14.98;;
26750;SDS011;14345;48.272;25.926;2023-12-04T10:29:19;23.13;;;15.80;;
26750;SDS011;14345;48.272;25.926;2023-12-04T10:31:46;22.60;;;14.43;;
26750;SDS011;14345;48.272;25.926;2023-12-04T10:34:15;20.58;;;13.80;;
26750;SDS011;14345;48.272;25.926;2023-12-04T10:36:41;21.15;;;14.43;;
26750;SDS011;14345;48.272;25.926;2023-12-04T10:39:07;22.67;;;14.45;;
26750;SDS011;14345;48.272;25.926;2023-12-04T10:41:35;24.70;;;15.23;;
26750;SDS011;14345;48.272;25.926;2023-12-04T10:44:04;23.13;;;15.30;;
26750;SDS011;14345;48.272;25.926;2023-12-04T10:46:33;18.15;;;12.05;;
26750;SDS011;14345;48.272;25.926;2023-12-04T10:49:02;19.60;;;13.73;;
26750;SDS011;14345;48.272;25.926;2023-12-04T10:51:30;19.98;;;13.95;;
26750;SDS011;14345;48.272;25.926;2023-12-04T10:53:56;20.08;;;13.82;;
26750;SDS011;14345;48.272;25.926;2023-12-04T10:56:28;21.98;;;14.45;;
26750;SDS011;14345;48.272;25.926;2023-12-04T10:58:56;17.63;;;11.85;;
26750;SDS011;14345;48.272;25.926;2023-12-04T11:01:23;18.67;;;12.63;;
26750;SDS011;14345;48.272;25.926;2023-12-04T11:03:55;17.73;;;11.60;;
26750;SDS011;14345;48.272;25.926;2023-12-04T11:06:22;18.90;;;12.48;;
26750;SDS011;14345;48.272;25.926;2023-12-04T11:08:49;21.77;;;13.38;;
26750;SDS011;14345;48.272;25.926;2023-12-04T11:11:23;19.45;;;12.20;;
26750;SDS011;14345;48.272;25.926;2023-12-04T11:13:50;20.95;;;13.98;;
26750;SDS011;14345;48.272;25.926;2023-12-04T11:16:22;26.48;;;15.05;;
26750;SDS011;14345;48.272;25.926;2023-12-04T11:18:51;18.42;;;12.48;;
26750;SDS011;14345;48.272;25.926;2023-12-04T11:21:19;18.40;;;11.80;;
26750;SDS011;14345;48.272;25.926;2023-12-04T11:23:47;21.00;;;13.65;;
26750;SDS011;14345;48.272;25.926;2023-12-04T11:26:13;23.33;;;14.07;;
26750;SDS011;14345;48.272;25.926;2023-12-04T11:28:40;22.42;;;13.95;;
26750;SDS011;14345;48.272;25.926;2023-12-04T11:31:06;26.75;;;14.25;;
26750;SDS011;14345;48.272;25.926;2023-12-04T11:33:36;20.42;;;12.88;;
26750;SDS011;14345;48.272;25.926;2023-12-04T11:36:06;21.15;;;12.52;;
26750;SDS011;14345;48.272;25.926;2023-12-04T11:38:33;19.75;;;12.48;;
26750;SDS011;14345;48.272;25.926;2023-12-04T11:40:59;20.00;;;12.55;;
26750;SDS011;14345;48.272;25.926;2023-12-04T11:43:25;20.92;;;13.38;;
26750;SDS011;14345;48.272;25.926;2023-12-04T11:45:52;21.77;;;12.45;;
26750;SDS011;14345;48.272;25.926;2023-12-04T11:48:22;18.85;;;11.48;;
26750;SDS011;14345;48.272;25.926;2023-12-04T11:50:49;21.60;;;11.65;;
26750;SDS011;14345;48.272;25.926;2023-12-04T11:53:16;19.02;;;12.15;;
26750;SDS011;14345;48.272;25.926;2023-12-04T11:55:42;16.38;;;11.27;;
26750;SDS011;14345;48.272;25.926;2023-12-04T11:58:09;13.20;;;9.30;;
26750;SDS011;14345;48.272;25.926;2023-12-04T12:00:36;13.10;;;9.38;;
26750;SDS011;14345;48.272;25.926;2023-12-04T12:03:06;15.07;;;9.90;;
26750;SDS011;14345;48.272;25.926;2023-12-04T12:05:34;14.65;;;10.57;;
26750;SDS011;14345;48.272;25.926;2023-12-04T12:08:01;17.10;;;11.30;;
26750;SDS011;14345;48.272;25.926;2023-12-04T12:10:28;18.70;;;12.05;;
26750;SDS011;14345;48.272;25.926;2023-12-04T12:12:54;17.67;;;11.40;;
26750;SDS011;14345;48.272;25.926;2023-12-04T12:15:21;19.45;;;13.05;;
26750;SDS011;14345;48.272;25.926;2023-12-04T12:17:48;18.00;;;12.15;;
26750;SDS011;14345;48.272;25.926;2023-12-04T12:20:15;18.45;;;12.68;;
26750;SDS011;14345;48.272;25.926;2023-12-04T12:22:41;17.98;;;12.15;;
26750;SDS011;14345;48.272;25.926;2023-12-04T12:25:11;20.05;;;11.75;;
26750;SDS011;14345;48.272;25.926;2023-12-04T12:27:37;17.13;;;10.25;;
26750;SDS011;14345;48.272;25.926;2023-12-04T12:30:04;15.70;;;10.15;;
26750;SDS011;14345;48.272;25.926;2023-12-04T12:32:31;19.05;;;11.50;;
26750;SDS011;14345;48.272;25.926;2023-12-04T12:34:57;19.15;;;11.95;;
26750;SDS011;14345;48.272;25.926;2023-12-04T12:37:23;18.77;;;12.05;;
26750;SDS011;14345;48.272;25.926;2023-12-04T12:39:49;25.67;;;14.50;;
26750;SDS011;14345;48.272;25.926;2023-12-04T12:42:24;20.75;;;12.65;;
26750;SDS011;14345;48.272;25.926;2023-12-04T12:44:51;16.10;;;11.27;;
26750;SDS011;14345;48.272;25.926;2023-12-04T12:47:18;19.52;;;12.10;;
26750;SDS011;14345;48.272;25.926;2023-12-04T12:49:44;21.77;;;12.15;;
26750;SDS011;14345;48.272;25.926;2023-12-04T12:52:11;17.67;;;11.25;;
26750;SDS011;14345;48.272;25.926;2023-12-04T12:54:37;16.92;;;11.45;;
26750;SDS011;14345;48.272;25.926;2023-12-04T12:57:04;14.75;;;10.43;;
26750;SDS011;14345;48.272;25.926;2023-12-04T12:59:32;14.27;;;10.30;;
26750;SDS011;14345;48.272;25.926;2023-12-04T13:01:58;14.57;;;10.23;;
26750;SDS011;14345;48.272;25.926;2023-12-04T13:04:34;16.80;;;9.82;;
26750;SDS011;14345;48.272;25.926;2023-12-04T13:07:00;17.50;;;10.60;;
26750;SDS011;14345;48.272;25.926;2023-12-04T13:09:28;17.00;;;11.05;;
26750;SDS011;14345;48.272;25.926;2023-12-04T13:11:54;19.73;;;12.73;;
26750;SDS011;14345;48.272;25.926;2023-12-04T13:14:20;17.33;;;12.07;;
26750;SDS011;14345;48.272;25.926;2023-12-04T13:16:46;20.02;;;13.88;;
26750;SDS011;14345;48.272;25.926;2023-12-04T13:19:12;20.75;;;14.25;;
26750;SDS011;14345;48.272;25.926;2023-12-04T13:21:38;21.98;;;13.20;;
26750;SDS011;14345;48.272;25.926;2023-12-04T13:24:05;22.85;;;13.77;;
26750;SDS011;14345;48.272;25.926;2023-12-04T13:26:33;19.05;;;12.15;;
26750;SDS011;14345;48.272;25.926;2023-12-04T13:28:59;23.02;;;14.60;;
26750;SDS011;14345;48.272;25.926;2023-12-04T13:31:26;21.98;;;14.32;;
26750;SDS011;14345;48.272;25.926;2023-12-04T13:33:53;19.33;;;13.50;;
26750;SDS011;14345;48.272;25.926;2023-12-04T13:36:19;19.08;;;12.80;;
26750;SDS011;14345;48.272;25.926;2023-12-04T13:38:45;21.13;;;13.82;;
26750;SDS011;14345;48.272;25.926;2023-12-04T13:41:11;21.52;;;13.02;;
26750;SDS011;14345;48.272;25.926;2023-12-04T13:43:56;18.02;;;12.27;;
26750;SDS011;14345;48.272;25.926;2023-12-04T13:46:24;18.83;;;12.95;;
26750;SDS011;14345;48.272;25.926;2023-12-04T13:48:52;19.75;;;12.38;;
26750;SDS011;14345;48.272;25.926;2023-12-04T13:51:18;16.25;;;12.15;;
26750;SDS011;14345;48.272;25.926;2023-12-04T13:53:45;21.70;;;12.88;;
26750;SDS011;14345;48.272;25.926;2023-12-04T13:56:14;19.65;;;12.98;;
26750;SDS011;14345;48.272;25.926;2023-12-04T13:58:47;18.60;;;13.50;;
26750;SDS011;14345;48.272;25.926;2023-12-04T14:01:19;21.50;;;13.02;;
26750;SDS011;14345;48.272;25.926;2023-12-04T14:03:48;19.42;;;12.52;;
26750;SDS011;14345;48.272;25.926;2023-12-04T14:06:14;19.33;;;12.40;;
26750;SDS011;14345;48.272;25.926;2023-12-04T14:08:43;18.35;;;13.45;;